Time;durP1;ratioP1;P1;durP2;ratioP2;P2;SDS_P1;SDS_P2;PMS_P1;PMS_P2;Temp;Humidity;BMP_temperature;BMP_pressure;BME280_temperature;BME280_humidity;BME280_pressure;Samples;Min_cycle;Max_cycle;Signal;HPM_P1;HPM_P2
2023/03/05 00:01:09;;;;;;;10.32;0.63;;;4.20;99.90;;;;;;5031772;28;20024;-76
2023/03/05 00:03:38;;;;;;;4.05;0.43;;;4.20;99.90;;;;;;5031497;28;20026;-75
2023/03/05 00:06:07;;;;;;;4.00;0.32;;;4.20;99.90;;;;;;5023413;28;20397;-76
2023/03/05 00:08:35;;;;;;;1.73;0.10;;;4.20;99.90;;;;;;5011800;28;20102;-76
2023/03/05 00:11:04;;;;;;;9.82;0.80;;;4.20;99.90;;;;;;5011771;28;20457;-76
2023/03/05 00:13:30;;;;;;;;;;;4.20;99.90;;;;;;5012181;28;20057;-76
2023/03/05 00:15:56;;;;;;;8.10;0.75;;;4.20;99.90;;;;;;5013148;28;20281;-76
2023/03/05 00:18:22;;;;;;;7.57;0.98;;;4.20;99.90;;;;;;5016606;28;20128;-76
2023/03/05 00:20:48;;;;;;;5.72;0.10;;;4.20;99.90;;;;;;5016853;28;20029;-76
2023/03/05 00:23:14;;;;;;;7.68;0.20;;;4.30;99.90;;;;;;5014971;28;20029;-76
2023/03/05 00:25:40;;;;;;;4.47;0.10;;;4.30;99.90;;;;;;5016316;28;20033;-76
2023/03/05 00:28:09;;;;;;;5.57;0.20;;;4.30;99.90;;;;;;5016123;28;20022;-76
2023/03/05 00:30:38;;;;;;;7.57;0.40;;;4.20;99.90;;;;;;5014834;28;20121;-76
2023/03/05 00:33:07;;;;;;;7.47;0.38;;;4.20;99.90;;;;;;5014623;28;20032;-76
2023/03/05 00:35:42;;;;;;;;;;;4.50;99.90;;;;;;5016573;28;20025;-76
2023/03/05 00:38:08;;;;;;;4.10;0.10;;;4.20;99.90;;;;;;5016170;28;19913;-76
2023/03/05 00:40:38;;;;;;;9.02;0.55;;;4.20;99.90;;;;;;5016167;28;20418;-76
2023/03/05 00:43:10;;;;;;;3.67;0.10;;;4.20;99.90;;;;;;5016389;28;20026;-76
2023/03/05 00:45:38;;;;;;;2.28;0.00;;;4.10;99.90;;;;;;5014739;28;20036;-76
2023/03/05 00:48:03;;;;;;;4.43;0.20;;;4.10;99.90;;;;;;5014961;28;20017;-77
2023/03/05 00:50:32;;;;;;;8.85;1.05;;;4.10;99.90;;;;;;5014659;28;20018;-76
2023/03/05 00:52:58;;;;;;;2.22;0.15;;;4.10;99.90;;;;;;5014639;28;20026;-77
2023/03/05 00:55:23;;;;;;;7.10;0.05;;;4.10;99.90;;;;;;5014445;28;20048;-76
2023/03/05 00:57:49;;;;;;;4.47;0.15;;;4.20;99.90;;;;;;5015593;28;20022;-76
2023/03/05 01:00:15;;;;;;;4.93;0.10;;;4.10;99.90;;;;;;5015907;28;20029;-76
2023/03/05 01:02:41;;;;;;;4.50;0.43;;;4.10;99.90;;;;;;5015578;28;20030;-76
2023/03/05 01:05:10;;;;;;;4.45;0.00;;;4.10;99.90;;;;;;5015513;28;20037;-76
2023/03/05 01:07:38;;;;;;;7.78;1.00;;;4.10;99.90;;;;;;5015756;28;20033;-76
2023/03/05 01:10:05;;;;;;;5.05;0.10;;;4.20;99.90;;;;;;5015582;28;20037;-76
2023/03/05 01:12:31;;;;;;;4.85;0.20;;;4.20;99.90;;;;;;5014107;28;20044;-76
2023/03/05 01:14:56;;;;;;;3.83;0.65;;;4.10;99.90;;;;;;5015432;28;20482;-76
2023/03/05 01:17:22;;;;;;;7.25;1.00;;;4.10;99.90;;;;;;5015747;28;20469;-76
2023/03/05 01:19:48;;;;;;;4.05;0.65;;;4.00;99.90;;;;;;5015082;28;20072;-76
2023/03/05 01:22:16;;;;;;;5.13;0.43;;;4.00;99.90;;;;;;5015256;28;20481;-76
2023/03/05 01:24:45;;;;;;;5.28;0.20;;;4.00;99.90;;;;;;5013803;28;20493;-76
2023/03/05 01:27:10;;;;;;;12.70;0.43;;;3.70;99.90;;;;;;5012919;28;20022;-76
2023/03/05 01:29:36;;;;;;;10.23;0.77;;;3.90;99.90;;;;;;5013714;28;20035;-76
2023/03/05 01:32:02;;;;;;;3.83;0.40;;;4.90;99.90;;;;;;5014828;28;20022;-76
2023/03/05 01:34:27;;;;;;;7.13;0.40;;;3.70;99.90;;;;;;5013502;28;20026;-76
2023/03/05 01:36:53;;;;;;;4.03;0.15;;;3.60;99.90;;;;;;5013647;28;20030;-76
2023/03/05 01:39:21;;;;;;;3.92;0.30;;;3.40;99.90;;;;;;5015372;28;20033;-76
2023/03/05 01:41:47;;;;;;;6.13;0.63;;;3.40;99.90;;;;;;5015046;28;20505;-76
2023/03/05 01:44:25;;;;;;;8.75;0.77;;;3.30;99.90;;;;;;5013355;28;20028;-76
2023/03/05 01:46:50;;;;;;;5.60;0.47;;;3.30;99.90;;;;;;5014649;28;20374;-76
2023/03/05 01:49:26;;;;;;;8.27;1.48;;;3.20;99.90;;;;;;5015228;28;20072;-77
2023/03/05 01:52:19;;;;;;;4.28;0.22;;;3.20;99.90;;;;;;5014641;28;20022;-76
2023/03/05 01:54:58;;;;;;;3.50;0.22;;;3.20;99.90;;;;;;5013380;28;20029;-76
2023/03/05 01:57:38;;;;;;;7.07;0.68;;;3.30;99.90;;;;;;5015086;28;20100;-76
2023/03/05 02:00:17;;;;;;;4.38;0.82;;;3.30;99.90;;;;;;5014893;28;20046;-76
2023/03/05 02:02:49;;;;;;;7.53;0.55;;;3.30;99.90;;;;;;5015047;28;20397;-76
2023/03/05 02:05:25;;;;;;;9.45;0.65;;;3.30;99.90;;;;;;5013278;28;20036;-76
2023/03/05 02:07:59;;;;;;;6.60;0.60;;;3.40;99.90;;;;;;5013443;28;20113;-76
2023/03/05 02:10:41;;;;;;;6.72;0.30;;;3.40;99.90;;;;;;5015244;28;20041;-76
2023/03/05 02:13:10;;;;;;;10.30;1.45;;;3.40;99.90;;;;;;5013250;28;20375;-76
2023/03/05 02:15:43;;;;;;;2.38;0.40;;;3.50;99.90;;;;;;5014346;28;20022;-76
2023/03/05 02:18:09;;;;;;;7.70;0.82;;;6.00;99.90;;;;;;5012955;28;20026;-76
2023/03/05 02:20:59;;;;;;;6.15;0.40;;;3.50;99.90;;;;;;5012915;28;20026;-76
2023/03/05 02:23:29;;;;;;;6.22;0.15;;;3.60;99.90;;;;;;5014528;28;20126;-77
2023/03/05 02:25:55;;;;;;;7.05;0.95;;;3.60;99.90;;;;;;5014396;28;20068;-77
2023/03/05 02:28:34;;;;;;;4.80;0.45;;;3.60;99.90;;;;;;5012835;28;20393;-77
2023/03/05 02:31:09;;;;;;;7.03;0.85;;;3.70;99.90;;;;;;5012828;28;20033;-77
2023/03/05 02:33:38;;;;;;;6.03;0.13;;;3.70;99.90;;;;;;5014136;28;20022;-77
2023/03/05 02:36:04;;;;;;;4.15;0.00;;;3.80;99.90;;;;;;5013051;28;20022;-77
2023/03/05 02:38:33;;;;;;;4.68;0.30;;;3.80;99.90;;;;;;5012306;28;20026;-78
2023/03/05 02:41:01;;;;;;;5.10;0.47;;;3.80;99.90;;;;;;5012480;28;20030;-76
2023/03/05 02:43:27;;;;;;;7.90;0.00;;;3.90;99.90;;;;;;5013820;28;20036;-78
2023/03/05 02:45:55;;;;;;;4.25;0.30;;;3.90;99.90;;;;;;5013986;28;20536;-77
2023/03/05 02:48:21;;;;;;;3.03;0.00;;;3.90;99.90;;;;;;5012782;28;20157;-77
2023/03/05 02:50:53;;;;;;;2.97;0.10;;;3.90;99.90;;;;;;5014178;28;20065;-77
2023/03/05 02:53:22;;;;;;;7.25;0.25;;;3.90;99.90;;;;;;5012418;28;20109;-77
2023/03/05 02:55:51;;;;;;;4.63;0.85;;;3.90;99.90;;;;;;5012607;28;20046;-77
2023/03/05 02:58:20;;;;;;;6.43;0.10;;;3.90;99.90;;;;;;5011951;28;20117;-78
2023/03/05 03:00:46;;;;;;;2.20;0.00;;;3.90;99.90;;;;;;5012341;28;20072;-77
2023/03/05 03:03:14;;;;;;;2.45;0.10;;;3.80;99.90;;;;;;5012354;28;20029;-78
2023/03/05 03:05:40;;;;;;;0.60;0.00;;;3.80;99.90;;;;;;5013573;28;20026;-78
2023/03/05 03:08:06;;;;;;;5.63;0.30;;;3.80;99.90;;;;;;5012364;28;20084;-78
2023/03/05 03:10:35;;;;;;;1.52;0.05;;;3.80;99.90;;;;;;5012479;28;20014;-78
2023/03/05 03:13:01;;;;;;;1.85;0.20;;;3.80;99.90;;;;;;5013481;28;20044;-78
2023/03/05 03:15:32;;;;;;;4.30;0.00;;;3.80;99.90;;;;;;5012514;28;20029;-78
2023/03/05 03:17:58;;;;;;;3.80;0.00;;;3.70;99.90;;;;;;5012340;28;20129;-78
2023/03/05 03:20:26;;;;;;;23.52;1.75;;;3.80;99.90;;;;;;5012023;28;20120;-78
2023/03/05 03:22:52;;;;;;;5.57;0.45;;;3.70;99.90;;;;;;5013488;28;20509;-78
2023/03/05 03:25:22;;;;;;;4.63;0.15;;;3.70;99.90;;;;;;5013452;28;20030;-78
2023/03/05 03:27:57;;;;;;;7.57;0.40;;;3.70;99.90;;;;;;5013548;28;20406;-78
2023/03/05 03:30:25;;;;;;;4.05;0.10;;;3.60;99.90;;;;;;5012488;28;20018;-78
2023/03/05 03:32:52;;;;;;;4.53;0.60;;;3.60;99.90;;;;;;5013366;28;20025;-78
2023/03/05 03:35:18;;;;;;;4.32;0.10;;;3.60;99.90;;;;;;5012393;28;20374;-78
2023/03/05 03:37:43;;;;;;;3.42;0.10;;;3.60;99.90;;;;;;5013499;28;20144;-78
2023/03/05 03:40:13;;;;;;;9.35;0.05;;;3.50;99.90;;;;;;5012205;28;20123;-77
2023/03/05 03:42:42;;;;;;;8.32;0.40;;;3.60;99.90;;;;;;5012173;28;20037;-77
2023/03/05 03:45:08;;;;;;;1.90;0.30;;;3.50;99.90;;;;;;5012176;28;20030;-78
2023/03/05 03:47:34;;;;;;;5.03;0.30;;;3.60;99.90;;;;;;5011621;28;20371;-78
2023/03/05 03:49:59;;;;;;;3.40;0.00;;;3.60;99.90;;;;;;5012394;28;20121;-78
2023/03/05 03:52:25;;;;;;;4.47;0.00;;;3.70;99.90;;;;;;5017064;28;20429;-78
2023/03/05 03:54:51;;;;;;;3.17;0.00;;;3.70;99.90;;;;;;5016862;28;20489;-78
2023/03/05 03:57:21;;;;;;;0.88;0.00;;;3.70;99.90;;;;;;5015285;28;20116;-78
2023/03/05 03:59:46;;;;;;;4.35;0.20;;;5.10;99.90;;;;;;5016787;28;20398;-78
2023/03/05 04:02:12;;;;;;;1.77;0.25;;;3.70;99.90;;;;;;5015598;28;20026;-78
2023/03/05 04:04:41;;;;;;;0.85;0.00;;;3.70;99.90;;;;;;5016026;28;20018;-78
2023/03/05 04:07:07;;;;;;;1.92;0.00;;;3.70;99.90;;;;;;5016610;28;20485;-78
2023/03/05 04:09:33;;;;;;;5.95;0.45;;;3.80;99.90;;;;;;5015492;28;20033;-78
2023/03/05 04:11:58;;;;;;;0.32;0.00;;;3.90;99.90;;;;;;5015123;28;20033;-77
2023/03/05 04:14:25;;;;;;;1.80;0.00;;;3.90;99.90;;;;;;5016481;28;20108;-77
2023/03/05 04:16:51;;;;;;;3.20;0.47;;;3.80;99.90;;;;;;5015081;28;20021;-78
2023/03/05 04:19:20;;;;;;;1.63;0.32;;;3.80;99.90;;;;;;5015387;28;20104;-78
2023/03/05 04:21:48;;;;;;;2.28;0.10;;;5.20;99.90;;;;;;5014987;28;20489;-78
2023/03/05 04:24:14;;;;;;;3.55;0.00;;;5.20;99.90;;;;;;5014971;28;20053;-78
2023/03/05 04:26:39;;;;;;;2.28;0.45;;;3.70;99.90;;;;;;5015185;28;20022;-77
2023/03/05 04:29:05;;;;;;;1.75;0.00;;;3.70;99.90;;;;;;5014975;28;20572;-77
2023/03/05 04:31:30;;;;;;;3.95;0.05;;;3.70;99.90;;;;;;5015117;28;20022;-77
2023/03/05 04:33:56;;;;;;;2.03;0.20;;;3.70;99.90;;;;;;5014885;28;20477;-78
2023/03/05 04:36:22;;;;;;;4.60;0.00;;;3.60;99.90;;;;;;5015966;28;20026;-77
2023/03/05 04:38:47;;;;;;;1.95;0.20;;;3.60;99.90;;;;;;5015984;28;20021;-77
2023/03/05 04:41:13;;;;;;;1.95;0.00;;;3.50;99.90;;;;;;5015876;28;20025;-77
2023/03/05 04:43:38;;;;;;;2.15;0.00;;;3.50;99.90;;;;;;5015870;28;20018;-77
2023/03/05 04:46:04;;;;;;;3.63;0.10;;;3.50;99.90;;;;;;5015798;28;20065;-77
2023/03/05 04:48:30;;;;;;;2.83;0.20;;;3.60;99.90;;;;;;5015817;28;20022;-78
2023/03/05 04:50:56;;;;;;;1.60;0.10;;;3.50;99.90;;;;;;5014456;28;20022;-78
2023/03/05 04:53:25;;;;;;;3.60;0.00;;;3.50;99.90;;;;;;5015057;28;20022;-77
2023/03/05 04:55:54;;;;;;;5.53;0.10;;;4.90;99.90;;;;;;5015886;28;20026;-77
2023/03/05 04:58:20;;;;;;;4.03;0.08;;;3.50;99.90;;;;;;5015655;28;20072;-77
2023/03/05 05:00:46;;;;;;;3.47;0.00;;;3.40;99.90;;;;;;5014431;28;20390;-77
2023/03/05 05:03:11;;;;;;;5.22;0.00;;;3.50;99.90;;;;;;5014227;28;20075;-77
2023/03/05 05:05:37;;;;;;;3.38;0.00;;;3.40;99.90;;;;;;5015299;28;20108;-77
2023/03/05 05:08:03;;;;;;;2.30;0.00;;;3.40;99.90;;;;;;5015503;28;20025;-77
2023/03/05 05:10:30;;;;;;;1.52;0.00;;;3.40;99.90;;;;;;5014101;28;20021;-77
2023/03/05 05:12:56;;;;;;;2.10;0.00;;;3.40;99.90;;;;;;5013910;28;20026;-77
2023/03/05 05:15:22;;;;;;;2.50;0.00;;;3.40;99.90;;;;;;5014052;28;20041;-76
2023/03/05 05:17:47;;;;;;;2.42;0.55;;;3.40;99.90;;;;;;5015294;28;20054;-77
2023/03/05 05:20:15;;;;;;;1.02;0.00;;;3.40;99.90;;;;;;5015301;28;20388;-77
2023/03/05 05:22:41;;;;;;;1.83;0.00;;;3.40;99.90;;;;;;5014399;28;20564;-77
2023/03/05 05:25:07;;;;;;;1.55;0.00;;;3.40;99.90;;;;;;5015204;28;20473;-77
2023/03/05 05:27:33;;;;;;;3.13;0.08;;;3.40;99.90;;;;;;5015267;28;20049;-77
2023/03/05 05:29:59;;;;;;;2.10;0.30;;;3.40;99.90;;;;;;5015105;28;20057;-78
2023/03/05 05:32:25;;;;;;;1.00;0.00;;;3.20;99.90;;;;;;5013684;28;20030;-78
2023/03/05 05:34:55;;;;;;;6.47;0.65;;;3.40;99.90;;;;;;5015553;28;20465;-78
2023/03/05 05:37:21;;;;;;;1.48;0.00;;;3.40;99.90;;;;;;5013708;28;20037;-78
2023/03/05 05:39:49;;;;;;;1.40;0.00;;;3.30;99.90;;;;;;5014991;28;20521;-78
2023/03/05 05:42:19;;;;;;;2.55;0.00;;;3.30;99.90;;;;;;5014940;28;20057;-78
2023/03/05 05:44:45;;;;;;;1.73;0.30;;;3.30;99.90;;;;;;5014811;28;20116;-78
2023/03/05 05:47:11;;;;;;;1.85;0.13;;;3.40;99.90;;;;;;5013473;28;20485;-77
2023/03/05 05:49:37;;;;;;;2.38;0.00;;;3.30;99.90;;;;;;5014740;28;20018;-77
2023/03/05 05:52:03;;;;;;;4.57;0.00;;;3.40;99.90;;;;;;5013297;28;20024;-77
2023/03/05 05:54:28;;;;;;;7.82;0.85;;;3.40;99.90;;;;;;5013319;28;20029;-77
2023/03/05 05:56:54;;;;;;;3.13;0.32;;;3.40;99.90;;;;;;5013364;28;20022;-77
2023/03/05 05:59:20;;;;;;;3.42;0.40;;;3.40;99.90;;;;;;5013191;28;20030;-78
2023/03/05 06:01:45;;;;;;;4.05;0.08;;;3.40;99.90;;;;;;5014398;28;20049;-78
2023/03/05 06:04:11;;;;;;;1.88;0.05;;;3.30;99.90;;;;;;5013172;28;20033;-78
2023/03/05 06:06:36;;;;;;;2.53;0.00;;;3.40;99.90;;;;;;5013149;28;20101;-79
2023/03/05 06:09:03;;;;;;;1.73;0.65;;;3.40;99.90;;;;;;5013094;28;20045;-78
2023/03/05 06:11:29;;;;;;;2.30;0.03;;;3.40;99.90;;;;;;5014082;28;20037;-78
2023/03/05 06:13:54;;;;;;;3.33;0.38;;;3.40;99.90;;;;;;5013868;28;20022;-78
2023/03/05 06:16:22;;;;;;;1.80;0.00;;;3.20;99.90;;;;;;5014183;28;20033;-78
2023/03/05 06:18:49;;;;;;;1.50;0.00;;;3.30;99.90;;;;;;5014156;28;20076;-79
2023/03/05 06:21:17;;;;;;;3.42;0.13;;;3.30;99.90;;;;;;5012803;28;20382;-78
2023/03/05 06:23:44;;;;;;;0.10;0.10;;;3.30;99.90;;;;;;5012795;28;20037;-79
2023/03/05 06:26:11;;;;;;;1.55;0.03;;;3.20;99.90;;;;;;5013963;28;20025;-78
2023/03/05 06:28:37;;;;;;;2.17;0.35;;;3.10;99.90;;;;;;5014003;28;20026;-78
2023/03/05 06:31:08;;;;;;;0.95;0.00;;;3.10;99.90;;;;;;5013871;28;20511;-78
2023/03/05 06:33:35;;;;;;;1.52;0.05;;;3.10;99.90;;;;;;5013228;28;20041;-78
2023/03/05 06:36:10;;;;;;;6.85;0.30;;;3.10;99.90;;;;;;5013038;28;20033;-76
2023/03/05 06:38:36;;;;;;;5.00;0.35;;;3.00;99.90;;;;;;5014610;28;20033;-79
2023/03/05 06:41:04;;;;;;;1.48;0.00;;;3.00;99.90;;;;;;5012628;28;20436;-79
2023/03/05 06:43:40;;;;;;;1.83;0.00;;;3.00;99.90;;;;;;5013812;28;20030;-79
2023/03/05 06:46:21;;;;;;;1.55;0.00;;;3.00;99.90;;;;;;5012451;28;20032;-79
2023/03/05 06:48:51;;;;;;;0.98;0.30;;;3.00;99.90;;;;;;5012580;28;20022;-79
2023/03/05 06:51:21;;;;;;;0.88;0.00;;;2.90;99.90;;;;;;5013621;28;20018;-79
2023/03/05 06:53:47;;;;;;;2.53;0.00;;;2.90;99.90;;;;;;5013737;28;20058;-79
2023/03/05 06:56:15;;;;;;;0.85;0.00;;;2.90;99.90;;;;;;5013565;28;20393;-79
2023/03/05 06:58:42;;;;;;;2.42;0.20;;;3.00;99.90;;;;;;5013612;28;20022;-79
2023/03/05 07:01:08;;;;;;;1.75;0.00;;;3.00;99.90;;;;;;5013602;28;20038;-79
2023/03/05 07:03:35;;;;;;;3.83;0.40;;;3.00;99.90;;;;;;5013567;28;20479;-79
2023/03/05 07:06:05;;;;;;;4.90;0.45;;;3.00;99.90;;;;;;5012373;28;20026;-79
2023/03/05 07:08:31;;;;;;;2.53;0.00;;;3.20;99.90;;;;;;5012298;28;20026;-78
2023/03/05 07:11:00;;;;;;;4.68;0.00;;;3.30;99.90;;;;;;5013289;28;20090;-78
2023/03/05 07:13:26;;;;;;;1.15;0.00;;;3.30;99.90;;;;;;5012715;28;20026;-78
2023/03/05 07:15:52;;;;;;;3.22;0.28;;;3.40;99.90;;;;;;5012311;28;20037;-79
2023/03/05 07:18:18;;;;;;;1.20;0.00;;;3.50;99.90;;;;;;5012268;28;20026;-78
2023/03/05 07:20:44;;;;;;;1.63;0.05;;;3.50;99.90;;;;;;5013507;28;20057;-78
2023/03/05 07:23:09;;;;;;;2.85;0.00;;;3.60;99.90;;;;;;5012104;28;20022;-79
2023/03/05 07:25:36;;;;;;;1.85;0.00;;;3.70;99.90;;;;;;5014304;28;20030;-79
2023/03/05 07:28:04;;;;;;;1.20;0.00;;;3.70;99.90;;;;;;5016234;28;20100;-79
2023/03/05 07:30:30;;;;;;;3.75;0.63;;;3.80;99.90;;;;;;5016173;28;20061;-79
2023/03/05 07:32:56;;;;;;;2.65;0.00;;;3.90;99.90;;;;;;5017281;28;20481;-78
2023/03/05 07:35:23;;;;;;;2.10;0.00;;;3.90;99.90;;;;;;5017307;28;20087;-78
2023/03/05 07:37:49;;;;;;;1.90;0.00;;;3.90;99.90;;;;;;5016110;28;20028;-78
2023/03/05 07:40:14;;;;;;;0.60;0.00;;;3.90;99.90;;;;;;5017315;28;20052;-78
2023/03/05 07:42:40;;;;;;;3.25;0.15;;;4.00;99.90;;;;;;5017084;28;20067;-78
2023/03/05 07:45:06;;;;;;;0.05;0.00;;;4.10;99.90;;;;;;5017063;28;20359;-78
2023/03/05 07:47:32;;;;;;;0.77;0.00;;;4.10;99.90;;;;;;5017078;28;20489;-78
2023/03/05 07:49:57;;;;;;;1.45;0.10;;;4.20;99.90;;;;;;5016988;28;20032;-78
2023/03/05 07:52:23;;;;;;;3.50;0.17;;;4.20;99.90;;;;;;5015830;28;20362;-78
2023/03/05 07:54:48;;;;;;;1.98;0.00;;;4.20;99.90;;;;;;5016013;28;20022;-78
2023/03/05 07:57:14;;;;;;;2.85;0.10;;;4.20;99.90;;;;;;5017110;28;20029;-78
2023/03/05 07:59:39;;;;;;;0.75;0.00;;;4.30;99.90;;;;;;5017022;28;20041;-77
2023/03/05 08:02:06;;;;;;;3.20;0.10;;;4.30;99.90;;;;;;5016839;28;20025;-78
2023/03/05 08:04:32;;;;;;;2.03;0.20;;;4.40;99.90;;;;;;5016683;28;20025;-78
2023/03/05 08:06:58;;;;;;;2.53;0.00;;;4.50;99.90;;;;;;5015486;28;20049;-78
2023/03/05 08:09:24;;;;;;;1.42;0.05;;;4.60;99.90;;;;;;5016637;28;20022;-77
2023/03/05 08:11:50;;;;;;;0.22;0.10;;;4.70;99.90;;;;;;5016425;28;20065;-77
2023/03/05 08:14:16;;;;;;;1.58;0.00;;;4.70;99.90;;;;;;5015623;28;20029;-78
2023/03/05 08:16:41;;;;;;;1.75;0.00;;;4.70;99.90;;;;;;5015286;28;20088;-77
2023/03/05 08:19:09;;;;;;;0.43;0.00;;;4.80;99.90;;;;;;5015410;28;20106;-77
2023/03/05 08:21:35;;;;;;;0.43;0.00;;;4.80;99.90;;;;;;5015211;28;20126;-78
2023/03/05 08:24:03;;;;;;;2.95;0.08;;;4.90;99.90;;;;;;5016499;28;20065;-77
2023/03/05 08:26:30;;;;;;;1.05;0.00;;;4.90;99.90;;;;;;5016428;28;20052;-75
2023/03/05 08:28:56;;;;;;;2.38;0.20;;;5.10;99.90;;;;;;5014997;28;20125;-76
2023/03/05 08:31:24;;;;;;;1.80;0.30;;;5.30;99.90;;;;;;5016138;28;20057;-76
2023/03/05 08:33:52;;;;;;;1.05;0.00;;;5.20;99.90;;;;;;5014936;28;20029;-76
2023/03/05 08:36:17;;;;;;;2.10;0.00;;;5.50;99.90;;;;;;5015914;28;20030;-76
2023/03/05 08:38:45;;;;;;;1.75;0.00;;;5.30;99.90;;;;;;5016163;28;20026;-76
2023/03/05 08:41:11;;;;;;;1.55;0.00;;;5.40;99.90;;;;;;5016300;28;20025;-76
2023/03/05 08:43:37;;;;;;;1.35;0.00;;;5.50;99.90;;;;;;5014821;28;20029;-75
2023/03/05 08:46:03;;;;;;;3.05;0.10;;;5.50;99.90;;;;;;5015947;28;20363;-76
2023/03/05 08:48:30;;;;;;;1.58;0.20;;;5.60;99.90;;;;;;5016003;28;20029;-76
2023/03/05 08:50:56;;;;;;;0.90;0.00;;;5.60;99.90;;;;;;5015829;28;20486;-76
2023/03/05 08:53:22;;;;;;;1.60;0.20;;;5.60;99.90;;;;;;5015827;28;20022;-76
2023/03/05 08:55:56;;;;;;;1.85;0.05;;;5.70;99.90;;;;;;5015977;28;20105;-77
2023/03/05 08:58:22;;;;;;;3.03;0.13;;;5.70;99.90;;;;;;5014555;28;20165;-76
2023/03/05 09:00:48;;;;;;;5.10;0.10;;;5.80;99.90;;;;;;5014590;28;20509;-76
2023/03/05 09:03:14;;;;;;;2.22;0.00;;;5.80;99.90;;;;;;5015574;28;20036;-76
2023/03/05 09:05:39;;;;;;;5.38;0.22;;;5.80;99.90;;;;;;5015610;28;20036;-78
2023/03/05 09:08:05;;;;;;;4.47;0.10;;;5.90;99.90;;;;;;5015808;28;20028;-78
2023/03/05 09:10:30;;;;;;;0.82;0.13;;;7.70;99.90;;;;;;5014301;28;20179;-78
2023/03/05 09:12:56;;;;;;;0.40;0.00;;;6.40;99.90;;;;;;5014108;28;20075;-78
2023/03/05 09:15:21;;;;;;;1.63;0.00;;;7.10;99.90;;;;;;5014435;28;20022;-78
2023/03/05 09:17:47;;;;;;;2.17;0.47;;;6.00;99.90;;;;;;5015912;28;20091;-78
2023/03/05 09:20:14;;;;;;;2.50;0.20;;;6.00;99.90;;;;;;5015457;28;20029;-78
2023/03/05 09:22:40;;;;;;;0.50;0.00;;;5.90;99.90;;;;;;5015534;28;20022;-78
2023/03/05 09:25:10;;;;;;;1.83;0.30;;;5.90;99.90;;;;;;5021827;28;20025;-78
2023/03/05 09:27:36;;;;;;;0.85;0.10;;;8.80;99.90;;;;;;5028938;28;20022;-78
2023/03/05 09:30:06;;;;;;;4.47;0.08;;;5.80;99.90;;;;;;5034624;28;20029;-78
2023/03/05 09:32:32;;;;;;;0.30;0.00;;;5.80;99.90;;;;;;5034219;28;20424;-78
2023/03/05 09:34:58;;;;;;;2.22;0.00;;;5.90;99.90;;;;;;5033443;28;20030;-78
2023/03/05 09:37:24;;;;;;;6.45;0.85;;;6.00;99.90;;;;;;5032889;28;20096;-78
2023/03/05 09:39:49;;;;;;;1.20;0.00;;;6.40;99.90;;;;;;5033228;28;20489;-78
2023/03/05 09:42:27;;;;;;;1.38;0.20;;;6.30;99.90;;;;;;5033509;28;20037;-78
2023/03/05 09:45:41;;;;;;;1.50;0.10;;;6.40;99.90;;;;;;5033582;28;20021;-77
2023/03/05 09:48:16;;;;;;;2.97;0.00;;;6.50;99.90;;;;;;4992747;28;20081;-78
2023/03/05 09:50:41;;;;;;;0.55;0.00;;;6.50;99.90;;;;;;5028506;28;20091;-78
2023/03/05 09:53:20;;;;;;;0.68;0.00;;;6.60;99.90;;;;;;5033316;28;20025;-78
2023/03/05 09:55:54;;;;;;;0.65;0.00;;;6.70;99.90;;;;;;5033307;28;20035;-77
2023/03/05 09:58:29;;;;;;;1.25;0.00;;;6.80;99.90;;;;;;5033342;28;20424;-77
2023/03/05 10:00:59;;;;;;;1.45;0.00;;;6.80;99.90;;;;;;5034716;28;20106;-77
2023/03/05 10:03:30;;;;;;;0.75;0.00;;;7.00;99.90;;;;;;5034779;28;20029;-77
2023/03/05 10:06:11;;;;;;;4.15;0.00;;;7.00;99.90;;;;;;5033550;28;20021;-78
2023/03/05 10:09:04;;;;;;;1.83;0.00;;;7.10;99.90;;;;;;5033110;28;20160;-77
2023/03/05 10:11:36;;;;;;;1.83;0.00;;;7.20;99.90;;;;;;5034464;28;20036;-77
2023/03/05 10:14:03;;;;;;;2.55;0.10;;;7.40;99.90;;;;;;5032998;28;20028;-78
2023/03/05 10:17:12;;;;;;;2.33;0.00;;;7.40;99.90;;;;;;5032949;28;20027;-77
2023/03/05 10:19:55;;;;;;;1.65;0.00;;;7.50;99.90;;;;;;5026687;28;20044;-77
2023/03/05 10:22:28;;;;;;;0.00;0.00;;;7.70;99.90;;;;;;5034154;28;20026;-77
2023/03/05 10:25:15;;;;;;;0.30;0.00;;;7.70;99.90;;;;;;5032596;28;20025;-77
2023/03/05 10:28:04;;;;;;;2.65;0.57;;;7.70;99.90;;;;;;5032717;28;20497;-77
2023/03/05 10:30:59;;;;;;;2.08;0.00;;;7.80;99.90;;;;;;5033937;28;20152;-78
2023/03/05 10:33:49;;;;;;;0.60;0.00;;;7.90;99.90;;;;;;5024970;28;20537;-77
2023/03/05 10:36:37;;;;;;;1.45;0.00;;;7.90;99.90;;;;;;5032578;28;20033;-77
2023/03/05 10:39:32;;;;;;;1.50;0.00;;;7.90;99.90;;;;;;5032453;28;20079;-77
2023/03/05 10:42:21;;;;;;;3.30;0.00;;;7.90;99.90;;;;;;5032293;28;20271;-77
2023/03/05 10:44:51;;;;;;;0.93;0.00;;;7.80;99.90;;;;;;5033720;28;20121;-77
2023/03/05 10:47:52;;;;;;;1.17;0.00;;;7.70;99.90;;;;;;5033701;28;20025;-77
2023/03/05 10:50:24;;;;;;;2.22;0.00;;;7.40;99.90;;;;;;5000836;28;20030;-77
2023/03/05 10:53:12;;;;;;;0.43;0.00;;;7.60;99.90;;;;;;5033449;28;20021;-77
2023/03/05 10:55:39;;;;;;;4.50;0.00;;;7.50;99.90;;;;;;5033887;28;20036;-77
2023/03/05 10:58:17;;;;;;;0.85;0.20;;;7.50;99.90;;;;;;5032248;28;20025;-77
2023/03/05 11:01:04;;;;;;;0.00;0.00;;;7.50;99.90;;;;;;5033853;28;20025;-77
2023/03/05 11:03:49;;;;;;;0.10;0.00;;;7.50;99.90;;;;;;5033150;28;20260;-77
2023/03/05 11:06:21;;;;;;;0.35;0.00;;;7.40;99.90;;;;;;5032095;28;20393;-77
2023/03/05 11:08:47;;;;;;;2.60;0.00;;;7.40;99.90;;;;;;5032182;28;20497;-77
2023/03/05 11:11:18;;;;;;;1.77;0.00;;;7.40;99.90;;;;;;5032006;28;20115;-76
2023/03/05 11:14:02;;;;;;;0.00;0.00;;;7.70;99.90;;;;;;5033510;28;20057;-77
2023/03/05 11:16:34;;;;;;;0.22;0.00;;;7.40;99.90;;;;;;5033288;28;20164;-77
2023/03/05 11:19:22;;;;;;;3.53;0.00;;;7.40;99.90;;;;;;5033336;28;20029;-76
2023/03/05 11:22:23;;;;;;;3.63;0.00;;;7.40;99.90;;;;;;5032583;28;20025;-76
2023/03/05 11:25:20;;;;;;;1.10;0.00;;;7.50;99.90;;;;;;5033432;28;20026;-76
2023/03/05 11:28:00;;;;;;;1.92;0.00;;;7.60;99.90;;;;;;5032357;28;20032;-76
2023/03/05 11:30:30;;;;;;;0.10;0.00;;;7.60;99.90;;;;;;5032233;28;20047;-77
2023/03/05 11:33:13;;;;;;;0.90;0.00;;;9.10;99.90;;;;;;5032089;28;20029;-76
2023/03/05 11:35:42;;;;;;;0.25;0.00;;;7.70;99.90;;;;;;5031901;28;20121;-77
2023/03/05 11:38:23;;;;;;;0.00;0.00;;;7.70;99.90;;;;;;5032185;28;20033;-77
2023/03/05 11:40:50;;;;;;;1.35;0.10;;;7.70;99.90;;;;;;5033423;28;20033;-77
2023/03/05 11:43:21;;;;;;;2.72;0.30;;;7.80;99.90;;;;;;5032248;28;20017;-77
2023/03/05 11:45:54;;;;;;;0.57;0.00;;;8.10;99.90;;;;;;5032980;28;20031;-77
2023/03/05 11:48:43;;;;;;;1.85;0.10;;;8.30;99.90;;;;;;5032145;28;20017;-78
2023/03/05 11:51:30;;;;;;;0.70;0.03;;;7.90;99.90;;;;;;5032867;28;20034;-77
2023/03/05 11:54:04;;;;;;;0.38;0.00;;;8.40;99.90;;;;;;5032410;28;20029;-76
2023/03/05 11:56:33;;;;;;;2.33;0.65;;;8.00;99.90;;;;;;5031912;28;20033;-77
2023/03/05 11:59:10;;;;;;;1.60;0.00;;;8.10;99.90;;;;;;5033200;28;20033;-77
2023/03/05 12:01:51;;;;;;;3.55;0.20;;;8.20;99.90;;;;;;5032031;28;20477;-76
2023/03/05 12:04:19;;;;;;;0.82;0.22;;;8.20;99.90;;;;;;5031901;28;20022;-77
2023/03/05 12:06:59;;;;;;;1.50;0.00;;;8.30;99.90;;;;;;5031811;28;20123;-77
2023/03/05 12:09:30;;;;;;;0.65;0.20;;;8.40;99.90;;;;;;5031731;28;20029;-77
2023/03/05 12:12:03;;;;;;;2.83;0.00;;;8.40;99.90;;;;;;5034078;28;20041;-77
2023/03/05 12:14:42;;;;;;;4.63;0.10;;;10.10;99.90;;;;;;5036594;28;20026;-77
2023/03/05 12:17:11;;;;;;;2.92;1.02;;;8.70;99.90;;;;;;5036763;28;20026;-77
2023/03/05 12:20:00;;;;;;;1.55;0.43;;;8.70;99.90;;;;;;5035731;28;20133;-77
2023/03/05 12:22:36;;;;;;;1.15;0.00;;;8.70;99.90;;;;;;5014970;28;20397;-77
2023/03/05 12:25:29;;;;;;;0.08;0.00;;;8.60;99.90;;;;;;5035152;28;20409;-77
2023/03/05 12:27:55;;;;;;;2.25;0.00;;;8.40;99.90;;;;;;5034998;28;20021;-77
2023/03/05 12:30:47;;;;;;;3.65;0.13;;;8.30;99.90;;;;;;5035114;28;20022;-77
2023/03/05 12:33:34;;;;;;;5.05;0.20;;;8.30;99.90;;;;;;5032966;28;20037;-77
2023/03/05 12:36:21;;;;;;;2.20;0.10;;;8.30;99.90;;;;;;5034849;28;20545;-77
2023/03/05 12:38:52;;;;;;;2.92;0.30;;;8.20;99.90;;;;;;5036649;28;20577;-77
2023/03/05 12:41:23;;;;;;;0.47;0.10;;;8.10;99.90;;;;;;5034960;28;20017;-77
2023/03/05 12:44:04;;;;;;;0.70;0.00;;;8.00;99.90;;;;;;5034687;28;20022;-77
2023/03/05 12:46:36;;;;;;;3.75;0.00;;;7.90;99.90;;;;;;5035892;28;20040;-77
2023/03/05 12:49:25;;;;;;;2.13;0.22;;;7.90;99.90;;;;;;5034691;28;20049;-77
2023/03/05 12:51:55;;;;;;;0.55;0.17;;;7.90;99.90;;;;;;5034667;28;20056;-77
2023/03/05 12:54:27;;;;;;;0.80;0.00;;;7.80;99.90;;;;;;5034543;28;20409;-77
2023/03/05 12:56:58;;;;;;;1.63;0.00;;;7.90;99.90;;;;;;5034616;28;20104;-77
2023/03/05 12:59:37;;;;;;;0.20;0.00;;;7.90;99.90;;;;;;5034566;28;20389;-77
2023/03/05 13:02:35;;;;;;;2.58;0.10;;;8.00;99.90;;;;;;5034483;28;20021;-77
2023/03/05 13:05:06;;;;;;;1.55;0.10;;;8.00;99.90;;;;;;5032241;28;20133;-77
2023/03/05 13:07:31;;;;;;;0.47;0.05;;;8.00;99.90;;;;;;5034683;28;20033;-77
2023/03/05 13:09:58;;;;;;;1.58;0.00;;;8.10;99.90;;;;;;5035768;28;20025;-77
2023/03/05 13:12:27;;;;;;;1.75;0.00;;;8.20;99.90;;;;;;5034181;28;20033;-77
2023/03/05 13:15:02;;;;;;;0.73;0.17;;;8.10;99.90;;;;;;5034200;28;20021;-77